sensor_id;sensor_type;location;lat;lon;timestamp;P1;durP1;ratioP1;P2;durP2;ratioP2
49738;SDS011;53662;50.114;8.626;2024-03-02T00:01:47;17.00;;;7.03;;
49738;SDS011;53662;50.114;8.626;2024-03-02T00:04:12;11.05;;;7.05;;
49738;SDS011;53662;50.114;8.626;2024-03-02T00:06:38;10.60;;;6.97;;
49738;SDS011;53662;50.114;8.626;2024-03-02T00:09:04;12.45;;;6.75;;
49738;SDS011;53662;50.114;8.626;2024-03-02T00:11:30;9.98;;;6.35;;
49738;SDS011;53662;50.114;8.626;2024-03-02T00:14:00;10.32;;;7.15;;
49738;SDS011;53662;50.114;8.626;2024-03-02T00:16:29;11.15;;;6.53;;
49738;SDS011;53662;50.114;8.626;2024-03-02T00:18:56;11.93;;;7.40;;
49738;SDS011;53662;50.114;8.626;2024-03-02T00:21:27;7.10;;;6.40;;
49738;SDS011;53662;50.114;8.626;2024-03-02T00:23:53;12.70;;;6.50;;
49738;SDS011;53662;50.114;8.626;2024-03-02T00:26:19;19.58;;;6.72;;
49738;SDS011;53662;50.114;8.626;2024-03-02T00:28:45;13.80;;;6.82;;
49738;SDS011;53662;50.114;8.626;2024-03-02T00:31:11;10.45;;;7.00;;
49738;SDS011;53662;50.114;8.626;2024-03-02T00:36:07;8.38;;;6.97;;
49738;SDS011;53662;50.114;8.626;2024-03-02T00:38:33;11.48;;;6.88;;
49738;SDS011;53662;50.114;8.626;2024-03-02T00:41:06;9.18;;;7.03;;
49738;SDS011;53662;50.114;8.626;2024-03-02T00:43:38;11.20;;;6.70;;
49738;SDS011;53662;50.114;8.626;2024-03-02T00:46:06;10.70;;;7.00;;
49738;SDS011;53662;50.114;8.626;2024-03-02T00:48:32;14.80;;;6.70;;
49738;SDS011;53662;50.114;8.626;2024-03-02T00:51:02;11.32;;;7.68;;
49738;SDS011;53662;50.114;8.626;2024-03-02T00:53:29;14.27;;;7.05;;
49738;SDS011;53662;50.114;8.626;2024-03-02T00:55:55;8.90;;;6.95;;
49738;SDS011;53662;50.114;8.626;2024-03-02T00:58:21;14.38;;;6.72;;
49738;SDS011;53662;50.114;8.626;2024-03-02T01:00:47;12.23;;;7.28;;
49738;SDS011;53662;50.114;8.626;2024-03-02T01:03:13;12.82;;;7.55;;
49738;SDS011;53662;50.114;8.626;2024-03-02T01:05:42;11.77;;;7.93;;
49738;SDS011;53662;50.114;8.626;2024-03-02T01:08:11;10.23;;;7.35;;
49738;SDS011;53662;50.114;8.626;2024-03-02T01:10:37;12.90;;;7.35;;
49738;SDS011;53662;50.114;8.626;2024-03-02T01:13:03;12.77;;;7.47;;
49738;SDS011;53662;50.114;8.626;2024-03-02T01:15:29;11.90;;;7.05;;
49738;SDS011;53662;50.114;8.626;2024-03-02T01:17:55;12.20;;;7.75;;
49738;SDS011;53662;50.114;8.626;2024-03-02T01:20:21;12.18;;;7.22;;
49738;SDS011;53662;50.114;8.626;2024-03-02T01:22:47;13.52;;;7.03;;
49738;SDS011;53662;50.114;8.626;2024-03-02T01:25:13;9.50;;;6.93;;
49738;SDS011;53662;50.114;8.626;2024-03-02T01:27:39;9.52;;;6.50;;
49738;SDS011;53662;50.114;8.626;2024-03-02T01:30:05;10.77;;;6.68;;
49738;SDS011;53662;50.114;8.626;2024-03-02T01:32:32;14.95;;;6.93;;
49738;SDS011;53662;50.114;8.626;2024-03-02T01:34:57;11.68;;;6.35;;
49738;SDS011;53662;50.114;8.626;2024-03-02T01:37:23;8.80;;;6.97;;
49738;SDS011;53662;50.114;8.626;2024-03-02T01:39:49;8.32;;;6.68;;
49738;SDS011;53662;50.114;8.626;2024-03-02T01:42:15;9.48;;;6.28;;
49738;SDS011;53662;50.114;8.626;2024-03-02T01:44:41;11.90;;;6.78;;
49738;SDS011;53662;50.114;8.626;2024-03-02T01:47:07;10.20;;;6.55;;
49738;SDS011;53662;50.114;8.626;2024-03-02T01:49:33;11.43;;;6.72;;
49738;SDS011;53662;50.114;8.626;2024-03-02T01:51:59;11.75;;;6.70;;
49738;SDS011;53662;50.114;8.626;2024-03-02T01:54:25;14.32;;;7.25;;
49738;SDS011;53662;50.114;8.626;2024-03-02T01:56:51;10.50;;;6.65;;
49738;SDS011;53662;50.114;8.626;2024-03-02T01:59:17;7.65;;;6.30;;
49738;SDS011;53662;50.114;8.626;2024-03-02T02:01:43;10.88;;;6.57;;
49738;SDS011;53662;50.114;8.626;2024-03-02T02:04:09;10.95;;;7.07;;
49738;SDS011;53662;50.114;8.626;2024-03-02T02:06:35;9.23;;;6.95;;
49738;SDS011;53662;50.114;8.626;2024-03-02T02:09:01;10.57;;;7.25;;
49738;SDS011;53662;50.114;8.626;2024-03-02T02:11:27;7.60;;;6.32;;
49738;SDS011;53662;50.114;8.626;2024-03-02T02:13:53;8.02;;;7.10;;
49738;SDS011;53662;50.114;8.626;2024-03-02T02:16:20;12.88;;;7.43;;
49738;SDS011;53662;50.114;8.626;2024-03-02T02:18:46;13.20;;;7.63;;
49738;SDS011;53662;50.114;8.626;2024-03-02T02:21:12;10.23;;;7.10;;
49738;SDS011;53662;50.114;8.626;2024-03-02T02:23:38;10.68;;;7.80;;
49738;SDS011;53662;50.114;8.626;2024-03-02T02:26:04;10.25;;;7.70;;
49738;SDS011;53662;50.114;8.626;2024-03-02T02:28:30;14.82;;;8.57;;
49738;SDS011;53662;50.114;8.626;2024-03-02T02:30:56;9.18;;;7.20;;
49738;SDS011;53662;50.114;8.626;2024-03-02T02:33:25;12.13;;;7.93;;
49738;SDS011;53662;50.114;8.626;2024-03-02T02:35:50;12.27;;;8.35;;
49738;SDS011;53662;50.114;8.626;2024-03-02T02:38:16;14.63;;;7.70;;
49738;SDS011;53662;50.114;8.626;2024-03-02T02:40:44;10.07;;;7.47;;
49738;SDS011;53662;50.114;8.626;2024-03-02T02:43:10;9.95;;;7.45;;
49738;SDS011;53662;50.114;8.626;2024-03-02T02:45:36;11.75;;;7.97;;
49738;SDS011;53662;50.114;8.626;2024-03-02T02:48:02;9.82;;;7.70;;
49738;SDS011;53662;50.114;8.626;2024-03-02T02:50:28;12.00;;;7.80;;
49738;SDS011;53662;50.114;8.626;2024-03-02T02:52:54;11.45;;;7.80;;
49738;SDS011;53662;50.114;8.626;2024-03-02T02:55:20;11.38;;;8.00;;
49738;SDS011;53662;50.114;8.626;2024-03-02T02:57:46;11.32;;;7.22;;
49738;SDS011;53662;50.114;8.626;2024-03-02T03:00:13;8.52;;;7.68;;
49738;SDS011;53662;50.114;8.626;2024-03-02T03:02:40;12.40;;;7.32;;
49738;SDS011;53662;50.114;8.626;2024-03-02T03:05:07;7.80;;;7.00;;
49738;SDS011;53662;50.114;8.626;2024-03-02T03:07:33;11.10;;;8.07;;
49738;SDS011;53662;50.114;8.626;2024-03-02T03:10:00;8.93;;;7.88;;
49738;SDS011;53662;50.114;8.626;2024-03-02T03:12:26;8.15;;;7.30;;
49738;SDS011;53662;50.114;8.626;2024-03-02T03:14:52;10.40;;;7.35;;
49738;SDS011;53662;50.114;8.626;2024-03-02T03:17:17;10.93;;;7.75;;
49738;SDS011;53662;50.114;8.626;2024-03-02T03:19:43;11.18;;;8.05;;
49738;SDS011;53662;50.114;8.626;2024-03-02T03:22:09;9.15;;;7.35;;
49738;SDS011;53662;50.114;8.626;2024-03-02T03:24:35;8.93;;;7.15;;
49738;SDS011;53662;50.114;8.626;2024-03-02T03:27:01;14.27;;;8.00;;
49738;SDS011;53662;50.114;8.626;2024-03-02T03:29:27;9.75;;;7.30;;
49738;SDS011;53662;50.114;8.626;2024-03-02T03:31:53;8.10;;;7.00;;
49738;SDS011;53662;50.114;8.626;2024-03-02T03:34:19;8.35;;;6.97;;
49738;SDS011;53662;50.114;8.626;2024-03-02T03:36:45;13.10;;;7.07;;
49738;SDS011;53662;50.114;8.626;2024-03-02T03:39:11;9.55;;;7.43;;
49738;SDS011;53662;50.114;8.626;2024-03-02T03:41:37;9.65;;;7.53;;
49738;SDS011;53662;50.114;8.626;2024-03-02T03:44:03;11.68;;;8.07;;
49738;SDS011;53662;50.114;8.626;2024-03-02T03:46:29;8.98;;;6.97;;
49738;SDS011;53662;50.114;8.626;2024-03-02T03:48:55;10.15;;;7.18;;
49738;SDS011;53662;50.114;8.626;2024-03-02T03:51:21;10.23;;;6.70;;
49738;SDS011;53662;50.114;8.626;2024-03-02T03:53:50;14.23;;;7.97;;
49738;SDS011;53662;50.114;8.626;2024-03-02T03:56:16;12.77;;;7.32;;
49738;SDS011;53662;50.114;8.626;2024-03-02T03:58:42;8.65;;;7.65;;
49738;SDS011;53662;50.114;8.626;2024-03-02T04:01:08;8.95;;;7.50;;
49738;SDS011;53662;50.114;8.626;2024-03-02T04:03:34;14.07;;;7.40;;
49738;SDS011;53662;50.114;8.626;2024-03-02T04:06:00;10.60;;;7.43;;
49738;SDS011;53662;50.114;8.626;2024-03-02T04:08:26;9.55;;;7.65;;
49738;SDS011;53662;50.114;8.626;2024-03-02T06:16:08;20.77;;;11.50;;
49738;SDS011;53662;50.114;8.626;2024-03-02T06:18:34;16.95;;;11.40;;
49738;SDS011;53662;50.114;8.626;2024-03-02T06:21:03;17.30;;;10.65;;
49738;SDS011;53662;50.114;8.626;2024-03-02T06:23:31;19.85;;;11.65;;
49738;SDS011;53662;50.114;8.626;2024-03-02T06:25:57;15.15;;;11.38;;
49738;SDS011;53662;50.114;8.626;2024-03-02T06:28:23;20.80;;;11.60;;
49738;SDS011;53662;50.114;8.626;2024-03-02T06:30:49;16.88;;;11.98;;
49738;SDS011;53662;50.114;8.626;2024-03-02T06:33:15;18.10;;;11.77;;
49738;SDS011;53662;50.114;8.626;2024-03-02T06:35:41;17.45;;;11.70;;
49738;SDS011;53662;50.114;8.626;2024-03-02T06:38:07;18.92;;;12.40;;
49738;SDS011;53662;50.114;8.626;2024-03-02T06:40:33;19.35;;;12.38;;
49738;SDS011;53662;50.114;8.626;2024-03-02T06:42:59;17.92;;;12.02;;
49738;SDS011;53662;50.114;8.626;2024-03-02T06:45:25;19.15;;;11.85;;
49738;SDS011;53662;50.114;8.626;2024-03-02T06:47:51;18.70;;;12.20;;
49738;SDS011;53662;50.114;8.626;2024-03-02T06:50:17;16.70;;;11.63;;
49738;SDS011;53662;50.114;8.626;2024-03-02T06:52:43;17.70;;;11.70;;
49738;SDS011;53662;50.114;8.626;2024-03-02T06:55:09;19.17;;;12.13;;
49738;SDS011;53662;50.114;8.626;2024-03-02T06:57:35;17.05;;;12.27;;
49738;SDS011;53662;50.114;8.626;2024-03-02T07:00:01;18.63;;;11.55;;
49738;SDS011;53662;50.114;8.626;2024-03-02T07:02:30;18.58;;;12.02;;
49738;SDS011;53662;50.114;8.626;2024-03-02T07:04:55;20.27;;;12.82;;
49738;SDS011;53662;50.114;8.626;2024-03-02T07:07:21;24.17;;;12.90;;
49738;SDS011;53662;50.114;8.626;2024-03-02T07:09:47;20.73;;;11.85;;
49738;SDS011;53662;50.114;8.626;2024-03-02T07:12:13;19.58;;;12.38;;
49738;SDS011;53662;50.114;8.626;2024-03-02T07:14:40;18.00;;;12.82;;
49738;SDS011;53662;50.114;8.626;2024-03-02T07:17:24;26.48;;;13.63;;
49738;SDS011;53662;50.114;8.626;2024-03-02T07:19:50;21.90;;;12.50;;
49738;SDS011;53662;50.114;8.626;2024-03-02T07:22:16;16.90;;;12.82;;
49738;SDS011;53662;50.114;8.626;2024-03-02T07:24:43;21.58;;;14.13;;
49738;SDS011;53662;50.114;8.626;2024-03-02T07:27:11;27.45;;;13.48;;
49738;SDS011;53662;50.114;8.626;2024-03-02T07:29:37;19.73;;;12.73;;
49738;SDS011;53662;50.114;8.626;2024-03-02T07:32:03;20.92;;;13.45;;
49738;SDS011;53662;50.114;8.626;2024-03-02T07:34:29;18.80;;;12.40;;
49738;SDS011;53662;50.114;8.626;2024-03-02T07:36:55;24.25;;;14.02;;
49738;SDS011;53662;50.114;8.626;2024-03-02T07:39:21;32.00;;;14.32;;
49738;SDS011;53662;50.114;8.626;2024-03-02T07:41:47;24.05;;;13.88;;
49738;SDS011;53662;50.114;8.626;2024-03-02T07:44:13;20.58;;;13.68;;
49738;SDS011;53662;50.114;8.626;2024-03-02T07:46:40;25.83;;;14.32;;
49738;SDS011;53662;50.114;8.626;2024-03-02T07:49:06;24.38;;;14.82;;
49738;SDS011;53662;50.114;8.626;2024-03-02T07:51:32;23.63;;;15.60;;
49738;SDS011;53662;50.114;8.626;2024-03-02T07:53:58;24.55;;;15.25;;
49738;SDS011;53662;50.114;8.626;2024-03-02T07:56:24;23.88;;;15.07;;
49738;SDS011;53662;50.114;8.626;2024-03-02T07:58:50;28.63;;;16.00;;
49738;SDS011;53662;50.114;8.626;2024-03-02T08:01:16;29.25;;;15.13;;
49738;SDS011;53662;50.114;8.626;2024-03-02T08:03:42;34.92;;;17.17;;
49738;SDS011;53662;50.114;8.626;2024-03-02T08:06:13;24.40;;;16.10;;
49738;SDS011;53662;50.114;8.626;2024-03-02T08:08:39;23.75;;;15.63;;
49738;SDS011;53662;50.114;8.626;2024-03-02T08:11:05;24.58;;;16.20;;
49738;SDS011;53662;50.114;8.626;2024-03-02T08:13:31;22.70;;;15.50;;
49738;SDS011;53662;50.114;8.626;2024-03-02T08:15:57;25.33;;;15.32;;
49738;SDS011;53662;50.114;8.626;2024-03-02T08:18:24;24.27;;;14.88;;
49738;SDS011;53662;50.114;8.626;2024-03-02T08:20:49;88.60;;;17.85;;
49738;SDS011;53662;50.114;8.626;2024-03-02T08:23:17;34.42;;;15.60;;
49738;SDS011;53662;50.114;8.626;2024-03-02T08:25:43;72.28;;;17.38;;
49738;SDS011;53662;50.114;8.626;2024-03-02T08:28:09;25.00;;;16.63;;
49738;SDS011;53662;50.114;8.626;2024-03-02T08:30:35;23.35;;;16.02;;
49738;SDS011;53662;50.114;8.626;2024-03-02T08:33:01;26.92;;;16.23;;
49738;SDS011;53662;50.114;8.626;2024-03-02T08:35:27;25.50;;;15.93;;
49738;SDS011;53662;50.114;8.626;2024-03-02T08:37:53;25.88;;;15.40;;
49738;SDS011;53662;50.114;8.626;2024-03-02T08:40:19;24.88;;;16.77;;
49738;SDS011;53662;50.114;8.626;2024-03-02T08:42:45;23.73;;;16.10;;
49738;SDS011;53662;50.114;8.626;2024-03-02T08:45:11;30.13;;;16.33;;
49738;SDS011;53662;50.114;8.626;2024-03-02T08:47:38;24.67;;;14.93;;
49738;SDS011;53662;50.114;8.626;2024-03-02T08:50:04;24.00;;;15.10;;
49738;SDS011;53662;50.114;8.626;2024-03-02T08:52:31;34.85;;;16.20;;
49738;SDS011;53662;50.114;8.626;2024-03-02T08:54:57;25.10;;;14.73;;
49738;SDS011;53662;50.114;8.626;2024-03-02T08:57:23;24.73;;;15.93;;
49738;SDS011;53662;50.114;8.626;2024-03-02T08:59:49;24.17;;;16.65;;
49738;SDS011;53662;50.114;8.626;2024-03-02T09:02:15;24.40;;;15.45;;
49738;SDS011;53662;50.114;8.626;2024-03-02T09:04:40;27.58;;;15.48;;
49738;SDS011;53662;50.114;8.626;2024-03-02T09:07:06;22.27;;;14.93;;
49738;SDS011;53662;50.114;8.626;2024-03-02T09:09:32;25.40;;;14.48;;
49738;SDS011;53662;50.114;8.626;2024-03-02T09:11:58;22.40;;;14.98;;
49738;SDS011;53662;50.114;8.626;2024-03-02T09:14:24;20.67;;;14.90;;
49738;SDS011;53662;50.114;8.626;2024-03-02T09:16:50;26.27;;;16.02;;
49738;SDS011;53662;50.114;8.626;2024-03-02T09:19:16;26.38;;;15.48;;
49738;SDS011;53662;50.114;8.626;2024-03-02T09:21:42;28.50;;;15.48;;
49738;SDS011;53662;50.114;8.626;2024-03-02T09:24:09;28.95;;;15.45;;
49738;SDS011;53662;50.114;8.626;2024-03-02T09:26:35;28.67;;;15.43;;
49738;SDS011;53662;50.114;8.626;2024-03-02T09:29:01;28.58;;;14.82;;
49738;SDS011;53662;50.114;8.626;2024-03-02T09:31:27;23.25;;;15.07;;
49738;SDS011;53662;50.114;8.626;2024-03-02T09:33:53;20.67;;;14.18;;
49738;SDS011;53662;50.114;8.626;2024-03-02T09:36:19;29.73;;;15.38;;
49738;SDS011;53662;50.114;8.626;2024-03-02T09:38:45;280.83;;;27.75;;
49738;SDS011;53662;50.114;8.626;2024-03-02T09:41:11;92.22;;;16.33;;
49738;SDS011;53662;50.114;8.626;2024-03-02T09:43:38;22.85;;;14.23;;
49738;SDS011;53662;50.114;8.626;2024-03-02T09:46:04;31.52;;;14.68;;
49738;SDS011;53662;50.114;8.626;2024-03-02T09:48:31;16.45;;;7.00;;
49738;SDS011;53662;50.114;8.626;2024-03-02T09:50:57;9.30;;;6.88;;
49738;SDS011;53662;50.114;8.626;2024-03-02T09:53:23;12.77;;;7.63;;
49738;SDS011;53662;50.114;8.626;2024-03-02T09:55:49;24.85;;;11.68;;
49738;SDS011;53662;50.114;8.626;2024-03-02T09:58:15;15.40;;;11.65;;
49738;SDS011;53662;50.114;8.626;2024-03-02T10:00:41;16.23;;;11.40;;
49738;SDS011;53662;50.114;8.626;2024-03-02T10:03:11;23.13;;;12.30;;
49738;SDS011;53662;50.114;8.626;2024-03-02T10:05:37;143.93;;;17.48;;
49738;SDS011;53662;50.114;8.626;2024-03-02T10:08:03;42.80;;;12.82;;
49738;SDS011;53662;50.114;8.626;2024-03-02T10:10:36;16.52;;;11.80;;
49738;SDS011;53662;50.114;8.626;2024-03-02T10:13:05;16.45;;;11.68;;
49738;SDS011;53662;50.114;8.626;2024-03-02T10:15:31;15.13;;;11.95;;
49738;SDS011;53662;50.114;8.626;2024-03-02T10:17:57;18.17;;;12.43;;
49738;SDS011;53662;50.114;8.626;2024-03-02T10:20:24;18.05;;;11.77;;
49738;SDS011;53662;50.114;8.626;2024-03-02T10:22:50;22.80;;;10.85;;
49738;SDS011;53662;50.114;8.626;2024-03-02T10:25:31;25.13;;;12.75;;
49738;SDS011;53662;50.114;8.626;2024-03-02T10:27:57;15.05;;;10.60;;
49738;SDS011;53662;50.114;8.626;2024-03-02T10:30:24;33.60;;;11.82;;
49738;SDS011;53662;50.114;8.626;2024-03-02T10:32:50;14.63;;;11.02;;
49738;SDS011;53662;50.114;8.626;2024-03-02T10:35:16;17.35;;;11.43;;
49738;SDS011;53662;50.114;8.626;2024-03-02T10:37:42;21.58;;;10.27;;
49738;SDS011;53662;50.114;8.626;2024-03-02T10:40:10;17.30;;;11.02;;
49738;SDS011;53662;50.114;8.626;2024-03-02T10:42:37;268.63;;;23.60;;
49738;SDS011;53662;50.114;8.626;2024-03-02T10:45:05;19.58;;;11.38;;
49738;SDS011;53662;50.114;8.626;2024-03-02T10:47:31;13.27;;;9.98;;
49738;SDS011;53662;50.114;8.626;2024-03-02T10:49:59;17.55;;;10.40;;
49738;SDS011;53662;50.114;8.626;2024-03-02T10:52:26;23.85;;;10.82;;
49738;SDS011;53662;50.114;8.626;2024-03-02T10:54:52;28.75;;;10.60;;
49738;SDS011;53662;50.114;8.626;2024-03-02T10:57:19;32.08;;;10.23;;
49738;SDS011;53662;50.114;8.626;2024-03-02T10:59:57;19.77;;;10.48;;
49738;SDS011;53662;50.114;8.626;2024-03-02T11:02:27;16.27;;;9.20;;
49738;SDS011;53662;50.114;8.626;2024-03-02T11:04:55;13.18;;;9.30;;
49738;SDS011;53662;50.114;8.626;2024-03-02T11:07:22;12.35;;;9.27;;
49738;SDS011;53662;50.114;8.626;2024-03-02T11:09:58;12.95;;;8.57;;
49738;SDS011;53662;50.114;8.626;2024-03-02T11:14:53;12.32;;;9.75;;
49738;SDS011;53662;50.114;8.626;2024-03-02T11:17:21;17.70;;;10.48;;
49738;SDS011;53662;50.114;8.626;2024-03-02T11:19:47;22.30;;;9.52;;
49738;SDS011;53662;50.114;8.626;2024-03-02T11:22:13;11.52;;;8.90;;
49738;SDS011;53662;50.114;8.626;2024-03-02T11:24:47;23.85;;;9.20;;
49738;SDS011;53662;50.114;8.626;2024-03-02T11:27:13;18.63;;;9.57;;
49738;SDS011;53662;50.114;8.626;2024-03-02T11:32:16;17.98;;;10.88;;
49738;SDS011;53662;50.114;8.626;2024-03-02T11:34:43;11.65;;;9.85;;
49738;SDS011;53662;50.114;8.626;2024-03-02T11:37:10;15.95;;;11.05;;
49738;SDS011;53662;50.114;8.626;2024-03-02T11:39:37;15.18;;;10.45;;
49738;SDS011;53662;50.114;8.626;2024-03-02T11:42:05;12.95;;;10.20;;
49738;SDS011;53662;50.114;8.626;2024-03-02T11:44:32;13.93;;;9.20;;
49738;SDS011;53662;50.114;8.626;2024-03-02T11:47:02;12.35;;;9.88;;
49738;SDS011;53662;50.114;8.626;2024-03-02T11:49:41;11.10;;;9.10;;
49738;SDS011;53662;50.114;8.626;2024-03-02T11:52:08;16.58;;;9.25;;
49738;SDS011;53662;50.114;8.626;2024-03-02T11:54:36;17.60;;;10.02;;
49738;SDS011;53662;50.114;8.626;2024-03-02T11:57:04;12.45;;;9.68;;
49738;SDS011;53662;50.114;8.626;2024-03-02T11:59:30;17.92;;;9.80;;
49738;SDS011;53662;50.114;8.626;2024-03-02T12:01:56;19.33;;;9.25;;
49738;SDS011;53662;50.114;8.626;2024-03-02T12:04:23;21.08;;;9.05;;
49738;SDS011;53662;50.114;8.626;2024-03-02T12:06:55;22.65;;;9.10;;
49738;SDS011;53662;50.114;8.626;2024-03-02T12:09:24;29.27;;;9.45;;
49738;SDS011;53662;50.114;8.626;2024-03-02T12:12:00;14.32;;;9.30;;
49738;SDS011;53662;50.114;8.626;2024-03-02T12:14:27;12.00;;;8.43;;
49738;SDS011;53662;50.114;8.626;2024-03-02T12:16:53;8.93;;;7.60;;
49738;SDS011;53662;50.114;8.626;2024-03-02T12:19:20;12.82;;;8.50;;
49738;SDS011;53662;50.114;8.626;2024-03-02T12:21:46;14.73;;;8.10;;
49738;SDS011;53662;50.114;8.626;2024-03-02T12:24:12;9.15;;;7.85;;
49738;SDS011;53662;50.114;8.626;2024-03-02T12:26:38;10.57;;;7.03;;
49738;SDS011;53662;50.114;8.626;2024-03-02T12:29:04;9.80;;;7.38;;
49738;SDS011;53662;50.114;8.626;2024-03-02T12:31:30;16.67;;;7.53;;
49738;SDS011;53662;50.114;8.626;2024-03-02T12:33:57;9.73;;;7.50;;
49738;SDS011;53662;50.114;8.626;2024-03-02T12:36:23;9.25;;;6.85;;
49738;SDS011;53662;50.114;8.626;2024-03-02T12:38:52;13.25;;;6.45;;
49738;SDS011;53662;50.114;8.626;2024-03-02T12:41:18;11.43;;;5.97;;
49738;SDS011;53662;50.114;8.626;2024-03-02T12:43:44;8.15;;;6.28;;
49738;SDS011;53662;50.114;8.626;2024-03-02T12:46:10;5.90;;;5.35;;
49738;SDS011;53662;50.114;8.626;2024-03-02T12:48:36;7.55;;;5.70;;
49738;SDS011;53662;50.114;8.626;2024-03-02T12:51:05;9.27;;;5.88;;
49738;SDS011;53662;50.114;8.626;2024-03-02T12:53:31;7.07;;;6.00;;
49738;SDS011;53662;50.114;8.626;2024-03-02T12:55:57;6.57;;;5.63;;
49738;SDS011;53662;50.114;8.626;2024-03-02T12:58:23;15.32;;;5.93;;
49738;SDS011;53662;50.114;8.626;2024-03-02T13:00:55;9.52;;;5.57;;
49738;SDS011;53662;50.114;8.626;2024-03-02T13:03:30;39.40;;;6.30;;
49738;SDS011;53662;50.114;8.626;2024-03-02T13:05:56;8.88;;;4.90;;
49738;SDS011;53662;50.114;8.626;2024-03-02T13:08:22;12.68;;;4.32;;
49738;SDS011;53662;50.114;8.626;2024-03-02T13:10:48;6.88;;;4.85;;
49738;SDS011;53662;50.114;8.626;2024-03-02T13:13:14;7.80;;;5.00;;
49738;SDS011;53662;50.114;8.626;2024-03-02T13:15:40;5.88;;;4.43;;
49738;SDS011;53662;50.114;8.626;2024-03-02T13:18:07;8.65;;;4.20;;
49738;SDS011;53662;50.114;8.626;2024-03-02T13:20:34;5.25;;;4.22;;
49738;SDS011;53662;50.114;8.626;2024-03-02T13:23:01;4.43;;;4.00;;
49738;SDS011;53662;50.114;8.626;2024-03-02T13:25:26;4.97;;;4.30;;
49738;SDS011;53662;50.114;8.626;2024-03-02T13:27:52;4.40;;;4.10;;
49738;SDS011;53662;50.114;8.626;2024-03-02T13:30:18;7.10;;;3.90;;
49738;SDS011;53662;50.114;8.626;2024-03-02T13:32:45;7.03;;;3.55;;
49738;SDS011;53662;50.114;8.626;2024-03-02T13:35:11;15.35;;;3.90;;
49738;SDS011;53662;50.114;8.626;2024-03-02T13:37:36;3.17;;;2.67;;
49738;SDS011;53662;50.114;8.626;2024-03-02T13:40:02;4.40;;;3.13;;
49738;SDS011;53662;50.114;8.626;2024-03-02T13:42:29;3.08;;;2.78;;
49738;SDS011;53662;50.114;8.626;2024-03-02T13:44:55;4.15;;;2.90;;
49738;SDS011;53662;50.114;8.626;2024-03-02T13:47:22;3.83;;;2.60;;
49738;SDS011;53662;50.114;8.626;2024-03-02T13:49:47;3.95;;;2.85;;
49738;SDS011;53662;50.114;8.626;2024-03-02T13:52:14;10.60;;;2.83;;
49738;SDS011;53662;50.114;8.626;2024-03-02T13:54:42;19.25;;;3.47;;
49738;SDS011;53662;50.114;8.626;2024-03-02T13:57:08;3.97;;;2.90;;
49738;SDS011;53662;50.114;8.626;2024-03-02T13:59:35;3.83;;;2.83;;
49738;SDS011;53662;50.114;8.626;2024-03-02T14:02:02;3.80;;;2.78;;
49738;SDS011;53662;50.114;8.626;2024-03-02T14:04:34;3.08;;;2.88;;
49738;SDS011;53662;50.114;8.626;2024-03-02T14:07:00;10.52;;;3.08;;
49738;SDS011;53662;50.114;8.626;2024-03-02T14:09:26;7.95;;;3.03;;
49738;SDS011;53662;50.114;8.626;2024-03-02T14:11:53;2.67;;;2.47;;
49738;SDS011;53662;50.114;8.626;2024-03-02T14:14:19;3.25;;;2.92;;
49738;SDS011;53662;50.114;8.626;2024-03-02T14:16:45;5.95;;;3.10;;
49738;SDS011;53662;50.114;8.626;2024-03-02T14:19:11;3.17;;;2.97;;
49738;SDS011;53662;50.114;8.626;2024-03-02T14:21:38;5.82;;;2.70;;
49738;SDS011;53662;50.114;8.626;2024-03-02T14:24:04;7.38;;;2.80;;
49738;SDS011;53662;50.114;8.626;2024-03-02T14:26:32;10.32;;;2.95;;
49738;SDS011;53662;50.114;8.626;2024-03-02T14:28:59;18.25;;;3.60;;
49738;SDS011;53662;50.114;8.626;2024-03-02T14:31:28;4.32;;;2.90;;
49738;SDS011;53662;50.114;8.626;2024-03-02T14:33:54;5.40;;;2.78;;
49738;SDS011;53662;50.114;8.626;2024-03-02T14:36:20;32.65;;;3.90;;
49738;SDS011;53662;50.114;8.626;2024-03-02T14:38:46;10.38;;;2.70;;
49738;SDS011;53662;50.114;8.626;2024-03-02T14:41:13;4.63;;;2.40;;
49738;SDS011;53662;50.114;8.626;2024-03-02T14:43:39;8.45;;;2.25;;
49738;SDS011;53662;50.114;8.626;2024-03-02T14:46:05;4.25;;;2.70;;
49738;SDS011;53662;50.114;8.626;2024-03-02T14:48:37;3.15;;;2.55;;
49738;SDS011;53662;50.114;8.626;2024-03-02T14:51:03;7.20;;;2.30;;
49738;SDS011;53662;50.114;8.626;2024-03-02T14:53:29;38.50;;;3.92;;
49738;SDS011;53662;50.114;8.626;2024-03-02T14:55:55;16.70;;;3.40;;
49738;SDS011;53662;50.114;8.626;2024-03-02T14:58:21;3.28;;;1.88;;
49738;SDS011;53662;50.114;8.626;2024-03-02T15:00:47;8.05;;;2.08;;
49738;SDS011;53662;50.114;8.626;2024-03-02T15:03:13;6.63;;;2.50;;
49738;SDS011;53662;50.114;8.626;2024-03-02T15:05:39;2.72;;;2.53;;
49738;SDS011;53662;50.114;8.626;2024-03-02T15:08:05;49.35;;;3.95;;
49738;SDS011;53662;50.114;8.626;2024-03-02T15:10:31;25.75;;;2.80;;
49738;SDS011;53662;50.114;8.626;2024-03-02T15:12:57;80.85;;;4.35;;
49738;SDS011;53662;50.114;8.626;2024-03-02T15:15:24;47.42;;;3.40;;
49738;SDS011;53662;50.114;8.626;2024-03-02T15:17:50;53.35;;;3.63;;
49738;SDS011;53662;50.114;8.626;2024-03-02T15:20:17;47.33;;;3.83;;
49738;SDS011;53662;50.114;8.626;2024-03-02T15:22:43;53.95;;;4.75;;
49738;SDS011;53662;50.114;8.626;2024-03-02T15:25:09;13.80;;;2.45;;
49738;SDS011;53662;50.114;8.626;2024-03-02T15:27:34;24.75;;;2.97;;
49738;SDS011;53662;50.114;8.626;2024-03-02T15:30:01;14.10;;;2.22;;
49738;SDS011;53662;50.114;8.626;2024-03-02T15:32:27;7.88;;;2.45;;
49738;SDS011;53662;50.114;8.626;2024-03-02T15:34:53;25.65;;;2.88;;
49738;SDS011;53662;50.114;8.626;2024-03-02T15:37:19;8.13;;;2.47;;
49738;SDS011;53662;50.114;8.626;2024-03-02T15:39:45;12.20;;;1.95;;
49738;SDS011;53662;50.114;8.626;2024-03-02T15:42:11;7.25;;;1.92;;
49738;SDS011;53662;50.114;8.626;2024-03-02T15:44:37;4.82;;;1.85;;
49738;SDS011;53662;50.114;8.626;2024-03-02T15:47:04;22.13;;;2.40;;
49738;SDS011;53662;50.114;8.626;2024-03-02T15:49:30;13.75;;;2.38;;
49738;SDS011;53662;50.114;8.626;2024-03-02T15:51:57;37.55;;;3.97;;
49738;SDS011;53662;50.114;8.626;2024-03-02T15:54:25;16.20;;;2.33;;
49738;SDS011;53662;50.114;8.626;2024-03-02T15:56:51;18.33;;;2.00;;
49738;SDS011;53662;50.114;8.626;2024-03-02T15:59:17;14.40;;;2.35;;
49738;SDS011;53662;50.114;8.626;2024-03-02T16:01:43;16.70;;;2.63;;
49738;SDS011;53662;50.114;8.626;2024-03-02T16:04:09;13.75;;;2.42;;
49738;SDS011;53662;50.114;8.626;2024-03-02T16:06:35;4.85;;;2.00;;
49738;SDS011;53662;50.114;8.626;2024-03-02T16:09:01;6.10;;;2.35;;
49738;SDS011;53662;50.114;8.626;2024-03-02T16:11:29;13.15;;;2.00;;
49738;SDS011;53662;50.114;8.626;2024-03-02T16:13:55;11.10;;;1.92;;
49738;SDS011;53662;50.114;8.626;2024-03-02T16:16:21;30.25;;;2.67;;
49738;SDS011;53662;50.114;8.626;2024-03-02T16:18:47;42.15;;;3.20;;
49738;SDS011;53662;50.114;8.626;2024-03-02T16:21:13;22.90;;;3.05;;
49738;SDS011;53662;50.114;8.626;2024-03-02T16:23:39;33.45;;;3.28;;
49738;SDS011;53662;50.114;8.626;2024-03-02T16:26:05;22.38;;;2.95;;
49738;SDS011;53662;50.114;8.626;2024-03-02T16:28:31;15.55;;;2.65;;
49738;SDS011;53662;50.114;8.626;2024-03-02T16:30:57;33.58;;;3.10;;
49738;SDS011;53662;50.114;8.626;2024-03-02T16:33:23;94.35;;;5.35;;
49738;SDS011;53662;50.114;8.626;2024-03-02T16:35:49;75.10;;;5.07;;
49738;SDS011;53662;50.114;8.626;2024-03-02T16:38:15;24.83;;;3.03;;
49738;SDS011;53662;50.114;8.626;2024-03-02T16:40:41;28.67;;;3.28;;
49738;SDS011;53662;50.114;8.626;2024-03-02T16:43:07;46.97;;;4.30;;